Time;durP1;ratioP1;P1;durP2;ratioP2;P2;SDS_P1;SDS_P2;PMS_P1;PMS_P2;Temp;Humidity;BMP_temperature;BMP_pressure;BME280_temperature;BME280_humidity;BME280_pressure;Samples;Min_cycle;Max_cycle;Signal;HPM_P1;HPM_P2
2023/04/03 00:01:14;;;;;;;7.30;2.27;;;6.30;1.00;;;;;;5050030;28;20403;-53
2023/04/03 00:03:41;;;;;;;7.10;2.20;;;5.40;1.00;;;;;;5050355;28;20413;-53
2023/04/03 00:06:09;;;;;;;7.90;2.47;;;5.20;1.00;;;;;;5050623;28;20782;-54
2023/04/03 00:08:35;;;;;;;9.40;2.40;;;5.90;1.00;;;;;;5049932;28;20471;-53
2023/04/03 00:11:03;;;;;;;7.20;2.40;;;5.20;1.00;;;;;;5050833;28;20862;-53
2023/04/03 00:13:29;;;;;;;6.93;2.00;;;5.20;1.00;;;;;;5050501;28;20897;-54
2023/04/03 00:15:55;;;;;;;6.80;2.20;;;5.10;1.00;;;;;;5050122;28;20583;-53
2023/04/03 00:18:21;;;;;;;7.15;2.40;;;5.10;1.00;;;;;;5050579;28;20408;-52
2023/04/03 00:20:47;;;;;;;6.80;2.13;;;6.40;1.00;;;;;;5049480;28;20442;-53
2023/04/03 00:23:13;;;;;;;6.20;2.20;;;6.40;1.00;;;;;;5050703;28;20435;-52
2023/04/03 00:25:39;;;;;;;7.17;2.23;;;6.00;1.00;;;;;;5049685;28;20389;-53
2023/04/03 00:28:05;;;;;;;8.27;2.20;;;5.30;1.00;;;;;;5050654;28;20522;-53
2023/04/03 00:30:31;;;;;;;6.80;2.10;;;6.10;1.00;;;;;;5049825;28;20413;-54
2023/04/03 00:32:57;;;;;;;6.95;2.20;;;5.10;1.00;;;;;;5049673;28;20381;-52
2023/04/03 00:35:24;;;;;;;7.00;1.90;;;5.20;1.00;;;;;;5050624;28;20747;-52
2023/04/03 00:37:55;;;;;;;6.80;2.00;;;5.60;1.00;;;;;;5049584;28;20384;-52
2023/04/03 00:40:26;;;;;;;7.82;2.05;;;5.30;1.00;;;;;;5050204;28;20397;-52
2023/04/03 00:42:57;;;;;;;7.10;2.10;;;5.20;1.00;;;;;;5049663;28;20421;-52
2023/04/03 00:45:45;;;;;;;7.80;1.92;;;5.20;1.00;;;;;;5050067;28;20389;-52
2023/04/03 00:48:19;;;;;;;6.10;1.90;;;5.20;1.00;;;;;;5049857;28;20424;-53
2023/04/03 00:50:46;;;;;;;6.68;2.10;;;5.20;1.00;;;;;;5049288;28;20401;-52
2023/04/03 00:53:17;;;;;;;6.70;2.00;;;5.20;1.00;;;;;;5049630;28;20397;-53
2023/04/03 00:55:45;;;;;;;6.30;1.90;;;5.20;1.00;;;;;;5049969;28;20435;-52
2023/04/03 00:58:12;;;;;;;8.63;2.40;;;5.20;1.00;;;;;;5050376;28;20390;-53
2023/04/03 01:00:43;;;;;;;7.05;2.42;;;6.70;1.00;;;;;;5049442;28;20382;-53
2023/04/03 01:03:08;;;;;;;8.15;2.67;;;5.20;1.00;;;;;;5049427;28;20378;-52
2023/04/03 01:05:34;;;;;;;6.60;2.27;;;6.60;1.00;;;;;;5049023;28;20913;-53
2023/04/03 01:08:00;;;;;;;5.90;1.90;;;5.00;1.00;;;;;;5049626;28;20382;-52
2023/04/03 01:10:26;;;;;;;6.20;2.00;;;4.90;1.00;;;;;;5049523;28;20429;-52
2023/04/03 01:12:52;;;;;;;8.10;2.47;;;6.50;1.00;;;;;;5048733;28;20385;-53
2023/04/03 01:15:34;;;;;;;8.50;2.10;;;6.00;1.00;;;;;;5049761;28;20374;-52
2023/04/03 01:18:00;;;;;;;7.45;2.30;;;5.00;1.00;;;;;;5049660;28;20385;-52
2023/04/03 01:20:31;;;;;;;6.30;2.20;;;5.00;1.00;;;;;;5049271;28;20380;-52
2023/04/03 01:23:37;;;;;;;6.53;2.13;;;5.00;1.00;;;;;;5049381;28;20385;-53
2023/04/03 01:26:02;;;;;;;5.95;2.15;;;5.10;1.00;;;;;;5049587;28;20476;-53
2023/04/03 01:28:31;;;;;;;8.40;2.00;;;6.60;1.00;;;;;;5049677;28;20500;-53
2023/04/03 01:31:26;;;;;;;6.22;1.95;;;5.10;1.00;;;;;;5048774;28;20420;-53
2023/04/03 01:33:52;;;;;;;8.57;2.30;;;5.10;1.00;;;;;;5048507;28;20876;-52
2023/04/03 01:36:26;;;;;;;6.55;2.42;;;6.00;1.00;;;;;;5049445;28;20445;-52
2023/04/03 01:38:53;;;;;;;8.23;2.53;;;5.10;1.00;;;;;;5048696;28;20389;-52
2023/04/03 01:41:20;;;;;;;8.63;2.80;;;5.10;1.00;;;;;;5049155;28;20846;-53
2023/04/03 01:43:47;;;;;;;7.25;2.00;;;5.20;1.00;;;;;;5048669;28;20385;-52
2023/04/03 01:46:12;;;;;;;7.35;2.55;;;5.10;1.00;;;;;;5049008;28;20369;-53
2023/04/03 01:48:38;;;;;;;6.63;2.50;;;5.20;1.00;;;;;;5048558;28;20466;-53
2023/04/03 01:51:04;;;;;;;6.30;2.30;;;5.10;1.00;;;;;;5049571;28;20922;-52
2023/04/03 01:53:30;;;;;;;8.27;2.60;;;5.00;1.00;;;;;;5048966;28;20435;-53
2023/04/03 01:55:55;;;;;;;6.70;1.90;;;5.00;1.00;;;;;;5048668;28;20400;-53
2023/04/03 01:58:21;;;;;;;8.07;2.30;;;5.80;1.00;;;;;;5049235;28;20429;-53
2023/04/03 02:00:46;;;;;;;7.00;2.10;;;5.00;1.00;;;;;;5048426;28;20563;-53
2023/04/03 02:03:12;;;;;;;8.43;3.07;;;6.40;1.00;;;;;;5047668;28;20775;-53
2023/04/03 02:05:38;;;;;;;8.40;2.22;;;5.00;1.00;;;;;;5048086;28;20386;-53
2023/04/03 02:08:04;;;;;;;7.25;2.90;;;5.00;1.00;;;;;;5049064;28;20386;-52
2023/04/03 02:10:30;;;;;;;6.07;2.13;;;4.90;1.00;;;;;;5048748;28;20435;-53
2023/04/03 02:12:55;;;;;;;8.00;2.80;;;6.40;1.00;;;;;;5048463;28;20389;-52
2023/04/03 02:15:21;;;;;;;8.52;2.88;;;4.90;1.00;;;;;;5049047;28;20382;-52
2023/04/03 02:17:46;;;;;;;7.40;2.40;;;6.20;1.00;;;;;;5048135;28;20381;-53
2023/04/03 02:20:12;;;;;;;7.10;2.47;;;4.90;1.00;;;;;;5048845;28;20377;-52
2023/04/03 02:22:39;;;;;;;7.55;2.80;;;4.80;1.00;;;;;;5048640;28;20388;-52
2023/04/03 02:25:05;;;;;;;6.90;2.20;;;5.60;1.00;;;;;;5050412;28;20397;-52
2023/04/03 02:27:31;;;;;;;6.70;2.15;;;4.70;1.00;;;;;;5052586;28;20524;-54
2023/04/03 02:29:57;;;;;;;9.60;2.30;;;4.80;1.00;;;;;;5052142;28;20503;-52
2023/04/03 02:32:22;;;;;;;6.60;2.00;;;4.90;1.00;;;;;;5052125;28;20400;-52
2023/04/03 02:34:48;;;;;;;5.55;1.90;;;5.00;1.00;;;;;;5051527;28;20392;-52
2023/04/03 02:37:14;;;;;;;5.95;1.83;;;4.90;1.00;;;;;;5052170;28;20381;-52
2023/04/03 02:39:39;;;;;;;7.17;2.20;;;4.90;1.00;;;;;;5051566;28;20397;-53
2023/04/03 02:42:05;;;;;;;7.90;1.97;;;5.90;1.00;;;;;;5052344;28;20842;-52
2023/04/03 02:44:31;;;;;;;8.80;2.30;;;4.90;1.00;;;;;;5052628;28;20405;-52
2023/04/03 02:46:57;;;;;;;7.60;2.60;;;5.80;1.00;;;;;;5052216;28;20381;-52
2023/04/03 02:49:22;;;;;;;8.80;2.30;;;5.70;1.00;;;;;;5052139;28;20558;-53
2023/04/03 02:51:48;;;;;;;5.85;1.85;;;6.60;1.00;;;;;;5051353;28;20389;-53
2023/04/03 02:54:15;;;;;;;6.57;2.03;;;5.00;1.00;;;;;;5052507;28;20382;-52
2023/04/03 02:56:40;;;;;;;7.07;2.08;;;5.10;1.00;;;;;;5051279;28;20855;-52
2023/04/03 02:59:06;;;;;;;6.00;1.90;;;5.90;1.00;;;;;;5051433;28;20454;-53
2023/04/03 03:01:32;;;;;;;6.50;2.40;;;4.70;1.00;;;;;;5051708;28;20393;-52
2023/04/03 03:03:59;;;;;;;6.83;2.80;;;4.80;1.00;;;;;;5051163;28;20396;-52
2023/04/03 03:06:25;;;;;;;8.23;2.45;;;4.80;1.00;;;;;;5051724;28;20385;-52
2023/04/03 03:08:51;;;;;;;7.77;2.20;;;4.80;1.00;;;;;;5049900;28;20497;-52
2023/04/03 03:11:16;;;;;;;7.60;2.43;;;5.60;1.00;;;;;;5051763;28;20421;-52
2023/04/03 03:13:42;;;;;;;9.35;2.95;;;4.60;1.00;;;;;;5051013;28;20378;-52
2023/04/03 03:16:08;;;;;;;8.83;3.03;;;5.10;1.00;;;;;;5051512;28;20461;-53
2023/04/03 03:18:34;;;;;;;6.80;2.13;;;4.80;1.00;;;;;;5051172;28;20369;-53
2023/04/03 03:21:02;;;;;;;7.68;2.65;;;4.80;1.00;;;;;;5051586;28;20385;-52
2023/04/03 03:23:30;;;;;;;7.70;2.00;;;4.80;1.00;;;;;;5051439;28;20397;-52
2023/04/03 03:25:58;;;;;;;6.55;2.08;;;6.40;1.00;;;;;;5050928;28;20416;-52
2023/04/03 03:28:24;;;;;;;6.35;2.33;;;4.70;1.00;;;;;;5051398;28;20716;-52
2023/04/03 03:30:50;;;;;;;8.98;3.10;;;4.60;1.00;;;;;;5050504;28;20421;-52
2023/04/03 03:33:17;;;;;;;7.05;2.40;;;4.50;1.00;;;;;;5051298;28;20746;-52
2023/04/03 03:35:43;;;;;;;6.43;2.40;;;5.90;1.00;;;;;;5050052;28;20857;-52
2023/04/03 03:38:09;;;;;;;5.40;1.80;;;6.00;1.00;;;;;;5051046;28;20377;-52
2023/04/03 03:40:35;;;;;;;6.72;2.22;;;5.60;1.00;;;;;;5051280;28;20393;-54
2023/04/03 03:43:00;;;;;;;6.43;1.90;;;6.10;1.00;;;;;;5050944;28;20738;-52
2023/04/03 03:45:26;;;;;;;11.17;2.50;;;5.70;1.00;;;;;;5051422;28;20837;-52
2023/04/03 03:47:53;;;;;;;6.93;2.25;;;5.70;1.00;;;;;;5050667;28;20377;-52
2023/04/03 03:50:19;;;;;;;9.80;2.20;;;4.80;1.00;;;;;;5051257;28;20441;-52
2023/04/03 03:52:45;;;;;;;7.97;2.60;;;6.50;1.00;;;;;;5050485;28;20588;-52
2023/04/03 03:55:11;;;;;;;7.13;2.33;;;4.70;1.00;;;;;;5051226;28;20391;-52
2023/04/03 03:57:37;;;;;;;6.50;2.30;;;5.40;1.00;;;;;;5050462;28;20425;-52
2023/04/03 04:00:03;;;;;;;6.40;2.28;;;5.80;1.00;;;;;;5051247;28;20428;-52
2023/04/03 04:02:29;;;;;;;8.90;2.30;;;4.70;1.00;;;;;;5050871;28;20389;-52
2023/04/03 04:04:55;;;;;;;8.02;2.75;;;5.70;1.00;;;;;;5050106;28;20390;-52
2023/04/03 04:07:21;;;;;;;7.88;2.40;;;4.70;1.00;;;;;;5050839;28;20382;-52
2023/04/03 04:09:46;;;;;;;6.28;2.22;;;6.40;1.00;;;;;;5049712;28;20762;-53
2023/04/03 04:12:12;;;;;;;7.20;2.50;;;4.70;1.00;;;;;;5050560;28;20768;-52
2023/04/03 04:14:37;;;;;;;7.40;2.40;;;4.90;1.00;;;;;;5050177;28;20369;-52
2023/04/03 04:17:03;;;;;;;6.13;2.10;;;5.70;1.00;;;;;;5050706;28;20448;-52
2023/04/03 04:19:29;;;;;;;8.43;2.97;;;5.00;1.00;;;;;;5050731;28;20373;-52
2023/04/03 04:21:54;;;;;;;8.30;2.70;;;4.90;1.00;;;;;;5049999;28;20389;-52
2023/04/03 04:24:20;;;;;;;6.00;2.03;;;5.00;1.00;;;;;;5050304;28;20473;-52
2023/04/03 04:26:45;;;;;;;8.60;2.88;;;4.90;1.00;;;;;;5049684;28;20446;-52
2023/04/03 04:29:11;;;;;;;6.27;2.57;;;6.50;1.00;;;;;;5050498;28;20944;-52
2023/04/03 04:31:37;;;;;;;6.88;2.13;;;5.30;1.00;;;;;;5049639;28;20854;-53
2023/04/03 04:34:02;;;;;;;7.20;2.30;;;5.00;1.00;;;;;;5049781;28;20378;-53
2023/04/03 04:36:28;;;;;;;8.82;2.40;;;5.00;1.00;;;;;;5050302;28;20503;-52
2023/04/03 04:38:53;;;;;;;5.80;2.00;;;6.10;1.00;;;;;;5049749;28;20499;-52
2023/04/03 04:41:23;;;;;;;6.97;2.10;;;4.90;1.00;;;;;;5050388;28;20858;-53
2023/04/03 04:43:49;;;;;;;6.30;2.50;;;4.90;1.00;;;;;;5049792;28;20377;-52
2023/04/03 04:46:15;;;;;;;6.20;1.90;;;5.30;99.90;;;;;;5049872;28;20385;-52
2023/04/03 04:48:41;;;;;;;7.40;2.60;;;5.70;99.90;;;;;;5048698;28;20401;-53
2023/04/03 04:51:07;;;;;;;6.65;2.33;;;5.00;99.90;;;;;;5049987;28;20851;-52
2023/04/03 04:53:32;;;;;;;6.53;2.00;;;5.00;99.90;;;;;;5050712;28;20382;-52
2023/04/03 04:55:58;;;;;;;7.00;2.30;;;4.70;99.90;;;;;;5049382;28;20374;-53
2023/04/03 04:58:24;;;;;;;8.43;2.40;;;5.20;99.90;;;;;;5049927;28;20746;-52
2023/04/03 05:01:16;;;;;;;8.07;2.70;;;5.20;99.90;;;;;;5048662;28;20815;-52
2023/04/03 05:03:42;;;;;;;7.07;2.63;;;5.20;99.90;;;;;;5049220;28;20377;-53
2023/04/03 05:06:07;;;;;;;6.38;2.20;;;5.20;99.90;;;;;;5049764;28;20862;-53
2023/04/03 05:08:33;;;;;;;7.10;2.60;;;4.90;99.90;;;;;;5050006;28;20417;-52
2023/04/03 05:10:58;;;;;;;8.27;2.40;;;5.00;99.90;;;;;;5049098;28;20778;-53
2023/04/03 05:13:24;;;;;;;7.30;2.50;;;4.80;99.90;;;;;;5050501;28;20909;-53
2023/04/03 05:15:50;;;;;;;5.80;1.80;;;4.80;99.90;;;;;;5048021;28;20397;-53
2023/04/03 05:18:15;;;;;;;7.90;2.30;;;4.80;1.00;;;;;;5049773;28;20421;-52
2023/04/03 05:20:43;;;;;;;7.97;2.10;;;6.10;1.00;;;;;;5048866;28;20719;-53
2023/04/03 05:23:10;;;;;;;7.78;2.00;;;4.70;1.00;;;;;;5049987;28;20404;-52
2023/04/03 05:25:38;;;;;;;5.97;2.13;;;5.90;1.00;;;;;;5049053;28;20393;-54
2023/04/03 05:28:03;;;;;;;6.70;2.50;;;4.50;1.00;;;;;;5049297;28;20789;-52
2023/04/03 05:30:29;;;;;;;6.73;2.03;;;4.50;1.00;;;;;;5049346;28;20426;-52
2023/04/03 05:32:55;;;;;;;6.50;1.90;;;4.60;1.00;;;;;;5048947;28;20377;-53
2023/04/03 05:35:21;;;;;;;6.55;1.83;;;4.60;1.00;;;;;;5049355;28;20381;-53
2023/04/03 05:37:46;;;;;;;11.80;2.40;;;4.80;1.00;;;;;;5048727;28;20401;-52
2023/04/03 05:40:13;;;;;;;6.60;2.00;;;4.80;1.00;;;;;;5049444;28;20413;-52
2023/04/03 05:42:38;;;;;;;8.38;2.40;;;4.70;1.00;;;;;;5048892;28;20427;-52
2023/04/03 05:45:04;;;;;;;8.80;2.20;;;5.80;1.00;;;;;;5049365;28;20420;-52
2023/04/03 05:47:31;;;;;;;7.40;2.35;;;4.60;1.00;;;;;;5048005;28;20751;-52
2023/04/03 05:49:56;;;;;;;6.80;2.40;;;5.90;1.00;;;;;;5048931;28;20401;-53
2023/04/03 05:52:34;;;;;;;7.20;2.60;;;4.60;1.00;;;;;;5048515;28;20458;-52
2023/04/03 05:55:00;;;;;;;7.20;2.30;;;4.70;1.00;;;;;;5048423;28;20839;-52
2023/04/03 05:57:26;;;;;;;6.00;1.97;;;4.80;1.00;;;;;;5049352;28;20403;-52
2023/04/03 05:59:52;;;;;;;6.93;2.30;;;5.40;1.00;;;;;;5048732;28;20405;-52
2023/04/03 06:02:20;;;;;;;6.30;2.00;;;5.90;1.00;;;;;;5053337;28;20400;-52
2023/04/03 06:04:47;;;;;;;9.30;2.33;;;4.80;1.00;;;;;;5046190;28;20522;-52
2023/04/03 06:07:16;;;;;;;6.50;2.20;;;4.80;1.00;;;;;;5052185;28;20431;-51
2023/04/03 06:09:43;;;;;;;6.68;2.10;;;6.10;1.00;;;;;;5052622;28;20404;-51
2023/04/03 06:12:09;;;;;;;7.30;2.50;;;5.70;1.00;;;;;;5052917;28;20472;-51
2023/04/03 06:14:35;;;;;;;7.28;2.50;;;4.90;1.00;;;;;;5052807;28;20472;-52
2023/04/03 06:17:01;;;;;;;7.63;2.50;;;5.00;1.00;;;;;;5052221;28;20369;-52
2023/04/03 06:19:27;;;;;;;6.90;2.35;;;5.00;1.00;;;;;;5053264;28;20401;-52
2023/04/03 06:21:53;;;;;;;8.90;2.58;;;4.90;1.00;;;;;;5052089;28;20402;-52
2023/04/03 06:24:21;;;;;;;10.10;3.30;;;5.00;1.00;;;;;;5053074;28;20857;-52
2023/04/03 06:26:47;;;;;;;7.35;2.30;;;5.50;1.00;;;;;;5051605;28;20431;-52
2023/04/03 06:29:12;;;;;;;10.00;3.00;;;5.10;1.00;;;;;;5052470;28;20421;-52
2023/04/03 06:31:38;;;;;;;10.95;3.50;;;5.20;1.00;;;;;;5051773;28;20918;-52
2023/04/03 06:34:07;;;;;;;11.20;3.75;;;5.10;1.00;;;;;;5052395;28;20448;-52
2023/04/03 06:36:32;;;;;;;6.90;2.50;;;5.90;1.00;;;;;;5052750;28;20484;-53
2023/04/03 06:38:59;;;;;;;6.95;2.20;;;5.00;1.00;;;;;;5051957;28;20890;-52
2023/04/03 06:41:26;;;;;;;7.40;2.50;;;6.40;1.00;;;;;;5051824;28;20480;-52
2023/04/03 06:43:51;;;;;;;7.10;2.20;;;6.10;1.00;;;;;;5051521;28;20430;-52
2023/04/03 06:46:19;;;;;;;6.10;1.90;;;5.10;1.00;;;;;;5052687;28;20409;-52
2023/04/03 06:48:45;;;;;;;8.30;2.50;;;5.10;1.00;;;;;;5051613;28;20445;-52
2023/04/03 06:51:26;;;;;;;9.80;2.88;;;5.10;1.00;;;;;;5052100;28;20468;-56
2023/04/03 06:53:54;;;;;;;8.90;2.13;;;5.30;1.00;;;;;;5051910;28;20408;-55
2023/04/03 06:56:20;;;;;;;7.07;2.45;;;5.60;1.00;;;;;;5051956;28;20870;-55
2023/04/03 06:58:46;;;;;;;7.80;2.65;;;5.90;1.00;;;;;;5051385;28;20463;-57
2023/04/03 07:01:14;;;;;;;7.68;2.30;;;5.90;1.00;;;;;;5052481;28;20386;-57
2023/04/03 07:03:40;;;;;;;6.50;2.00;;;6.40;1.00;;;;;;5051064;28;20461;-55
2023/04/03 07:06:07;;;;;;;7.33;2.20;;;5.80;1.00;;;;;;5051898;28;20485;-55
2023/04/03 07:08:34;;;;;;;10.40;2.70;;;6.70;1.00;;;;;;5051821;28;20404;-56
2023/04/03 07:11:00;;;;;;;8.82;2.65;;;5.70;1.00;;;;;;5049422;28;20400;-55
2023/04/03 07:13:26;;;;;;;8.00;2.78;;;7.80;1.00;;;;;;5051982;28;20794;-55
2023/04/03 07:15:52;;;;;;;7.60;2.80;;;6.60;1.00;;;;;;5050917;28;20527;-58
2023/04/03 07:18:18;;;;;;;7.78;2.95;;;6.30;1.00;;;;;;5051846;28;20390;-57
2023/04/03 07:20:44;;;;;;;7.57;3.00;;;6.30;1.00;;;;;;5051825;28;20476;-58
2023/04/03 07:23:10;;;;;;;7.80;2.08;;;7.00;1.00;;;;;;5051570;28;20774;-57
2023/04/03 07:25:37;;;;;;;7.22;2.58;;;7.30;1.00;;;;;;5051957;28;20898;-57
2023/04/03 07:28:03;;;;;;;8.00;2.45;;;6.40;1.00;;;;;;5051208;28;20393;-59
2023/04/03 07:30:29;;;;;;;7.28;2.70;;;6.70;1.00;;;;;;5051095;28;20825;-58
2023/04/03 07:32:55;;;;;;;7.50;2.70;;;7.50;1.00;;;;;;5051134;28;20853;-54
2023/04/03 07:35:20;;;;;;;9.67;2.80;;;7.30;99.90;;;;;;5051690;28;20457;-54
2023/04/03 07:37:46;;;;;;;8.30;2.47;;;8.40;99.90;;;;;;5050869;28;20435;-52
2023/04/03 07:40:12;;;;;;;6.90;2.20;;;8.50;99.90;;;;;;5051736;28;20381;-52
2023/04/03 07:42:38;;;;;;;7.25;2.50;;;7.70;99.90;;;;;;5051310;28;20394;-52
2023/04/03 07:45:04;;;;;;;6.50;2.17;;;7.80;99.90;;;;;;5051692;28;20374;-52
2023/04/03 07:47:31;;;;;;;6.20;2.00;;;7.80;99.90;;;;;;5033067;28;20716;-52
2023/04/03 07:49:57;;;;;;;7.25;2.30;;;8.40;99.90;;;;;;5050232;28;20417;-55
2023/04/03 07:52:23;;;;;;;7.80;2.50;;;8.00;99.90;;;;;;5050815;28;20715;-52
2023/04/03 07:54:49;;;;;;;7.47;2.80;;;7.70;99.90;;;;;;5050905;28;20378;-52
2023/04/03 07:57:15;;;;;;;6.93;2.65;;;7.80;99.90;;;;;;5050654;28;20459;-52
2023/04/03 07:59:42;;;;;;;8.23;2.50;;;8.30;99.90;;;;;;5050225;28;20461;-54
2023/04/03 08:02:10;;;;;;;13.00;2.28;;;8.90;99.90;;;;;;5051171;28;20374;-52
2023/04/03 08:04:35;;;;;;;6.60;2.30;;;9.20;99.90;;;;;;5050870;28;20485;-53
2023/04/03 08:07:01;;;;;;;7.67;2.70;;;9.00;99.90;;;;;;5050209;28;20906;-53
2023/04/03 08:09:27;;;;;;;7.18;2.05;;;8.50;99.90;;;;;;5050739;28;20421;-52
2023/04/03 08:11:53;;;;;;;7.23;2.23;;;8.10;99.90;;;;;;5050250;28;20388;-53
2023/04/03 08:14:20;;;;;;;7.28;2.28;;;7.60;99.90;;;;;;5051188;28;20441;-53
2023/04/03 08:16:47;;;;;;;7.47;2.40;;;7.90;99.90;;;;;;5049398;28;20742;-53
2023/04/03 08:19:15;;;;;;;8.52;2.38;;;8.80;99.90;;;;;;5050530;28;20412;-53
2023/04/03 08:21:41;;;;;;;7.40;2.70;;;9.70;99.90;;;;;;5050070;28;20397;-54
2023/04/03 08:24:08;;;;;;;7.22;2.50;;;10.20;99.90;;;;;;5050127;28;20381;-53
2023/04/03 08:26:34;;;;;;;8.05;2.30;;;10.70;99.90;;;;;;5050544;28;20373;-54
2023/04/03 08:28:59;;;;;;;8.20;2.45;;;10.60;99.90;;;;;;5049350;28;21023;-54
2023/04/03 08:31:25;;;;;;;7.70;2.60;;;9.90;99.90;;;;;;5050763;28;20393;-53
2023/04/03 08:33:51;;;;;;;6.80;2.40;;;9.70;99.90;;;;;;5049121;28;20381;-53
2023/04/03 08:36:20;;;;;;;7.25;2.70;;;10.30;99.90;;;;;;5050366;28;20897;-54
2023/04/03 08:38:46;;;;;;;7.97;2.80;;;10.30;99.90;;;;;;5049752;28;20442;-54
2023/04/03 08:41:15;;;;;;;7.35;2.20;;;9.80;99.90;;;;;;5050373;28;20400;-55
2023/04/03 08:44:08;;;;;;;7.55;2.60;;;9.20;99.90;;;;;;5049271;28;20385;-55
2023/04/03 08:46:46;;;;;;;7.88;2.78;;;9.10;99.90;;;;;;5050092;28;20409;-54
2023/04/03 08:49:40;;;;;;;8.57;2.58;;;9.00;99.90;;;;;;5049902;28;20782;-53
2023/04/03 08:52:12;;;;;;;10.07;2.70;;;8.80;99.90;;;;;;5049597;28;20380;-54
2023/04/03 08:54:52;;;;;;;8.95;3.33;;;9.90;99.90;;;;;;5050192;28;20370;-54
2023/04/03 08:57:26;;;;;;;9.77;2.40;;;9.20;99.90;;;;;;5049772;28;20385;-53
2023/04/03 08:59:52;;;;;;;8.40;3.00;;;9.00;99.90;;;;;;5049013;28;20388;-53
2023/04/03 09:02:46;;;;;;;8.00;2.80;;;9.20;99.90;;;;;;5050005;28;20386;-53
2023/04/03 09:05:18;;;;;;;7.53;2.90;;;9.30;99.90;;;;;;5046092;28;20396;-53
2023/04/03 09:07:49;;;;;;;7.90;2.70;;;9.50;99.90;;;;;;5048863;28;20428;-54
2023/04/03 09:10:19;;;;;;;9.93;3.50;;;9.80;99.90;;;;;;5049771;28;20466;-53
2023/04/03 09:12:52;;;;;;;10.70;3.58;;;10.20;99.90;;;;;;5048518;28;20855;-54
2023/04/03 09:15:25;;;;;;;9.82;3.10;;;10.60;99.90;;;;;;5049469;28;20373;-53
2023/04/03 09:18:06;;;;;;;9.68;2.90;;;11.00;99.90;;;;;;5049119;28;20378;-53
2023/04/03 09:20:53;;;;;;;9.03;3.20;;;11.00;99.90;;;;;;5049856;28;20855;-54
2023/04/03 09:23:31;;;;;;;10.17;2.90;;;11.00;99.90;;;;;;5049592;28;20862;-53
2023/04/03 09:26:08;;;;;;;6.97;2.20;;;10.10;99.90;;;;;;5048784;28;20409;-53
2023/04/03 09:28:38;;;;;;;6.57;2.67;;;9.60;99.90;;;;;;5049749;28;20381;-53
2023/04/03 09:31:14;;;;;;;7.10;2.40;;;9.80;99.90;;;;;;5049598;28;20421;-53
2023/04/03 09:33:40;;;;;;;9.43;2.60;;;9.60;99.90;;;;;;5050467;28;20373;-60
2023/04/03 09:36:07;;;;;;;5.95;1.95;;;9.40;99.90;;;;;;5053333;28;20381;-53
2023/04/03 09:38:33;;;;;;;8.30;2.50;;;9.00;99.90;;;;;;5053283;28;20727;-54
2023/04/03 09:41:07;;;;;;;6.33;2.00;;;10.60;99.90;;;;;;5052771;28;20424;-53
2023/04/03 09:43:36;;;;;;;10.65;2.72;;;9.40;99.90;;;;;;5052870;28;20374;-54
2023/04/03 09:46:27;;;;;;;6.90;2.10;;;9.50;99.90;;;;;;5052735;28;20481;-54
2023/04/03 09:49:00;;;;;;;7.38;1.70;;;9.40;99.90;;;;;;5052805;28;20405;-53
2023/04/03 09:51:31;;;;;;;5.90;1.75;;;9.50;99.90;;;;;;5053299;28;20488;-54
2023/04/03 09:53:57;;;;;;;7.40;2.13;;;9.90;99.90;;;;;;5052708;28;20855;-54
2023/04/03 09:56:23;;;;;;;6.95;1.90;;;11.20;99.90;;;;;;5052920;28;20389;-53
2023/04/03 09:59:02;;;;;;;6.38;1.90;;;9.50;99.90;;;;;;5052358;28;20397;-54
2023/04/03 10:01:32;;;;;;;6.57;1.50;;;10.00;99.90;;;;;;5053086;28;20382;-54
2023/04/03 10:04:11;;;;;;;7.18;1.80;;;9.10;99.90;;;;;;5052746;28;20381;-53
2023/04/03 10:06:48;;;;;;;5.40;1.60;;;8.30;99.90;;;;;;5053779;28;20416;-53
2023/04/03 10:09:26;;;;;;;5.55;1.80;;;8.30;99.90;;;;;;5053699;28;20413;-53
2023/04/03 10:12:12;;;;;;;6.78;1.90;;;8.70;99.90;;;;;;5052585;28;20725;-53
2023/04/03 10:14:58;;;;;;;5.85;1.45;;;9.20;99.90;;;;;;5052748;28;20389;-53
2023/04/03 10:17:56;;;;;;;7.82;1.67;;;8.90;99.90;;;;;;5053341;28;20389;-53
2023/04/03 10:20:32;;;;;;;6.45;2.08;;;8.30;99.90;;;;;;5053329;28;20379;-54
2023/04/03 10:23:32;;;;;;;6.85;1.88;;;7.90;99.90;;;;;;5051746;28;20381;-54
2023/04/03 10:26:10;;;;;;;5.40;1.40;;;8.00;99.90;;;;;;5052296;28;20412;-54
2023/04/03 10:29:02;;;;;;;6.10;1.90;;;7.80;99.90;;;;;;5052148;28;20390;-54
2023/04/03 10:31:48;;;;;;;5.50;1.50;;;8.00;99.90;;;;;;5053273;28;20403;-54
2023/04/03 10:34:28;;;;;;;5.88;1.60;;;8.10;99.90;;;;;;5052914;28;20457;-54
2023/04/03 10:37:13;;;;;;;5.53;1.75;;;8.60;99.90;;;;;;5051865;28;20385;-54
2023/04/03 10:40:32;;;;;;;6.57;1.63;;;9.10;99.90;;;;;;5052451;28;20397;-54
2023/04/03 10:43:01;;;;;;;6.10;1.60;;;8.90;99.90;;;;;;5011344;28;20431;-54
2023/04/03 10:45:38;;;;;;;7.38;1.60;;;8.70;99.90;;;;;;5051737;28;20416;-54
2023/04/03 10:48:47;;;;;;;6.50;1.75;;;8.30;99.90;;;;;;5051325;28;20373;-54
2023/04/03 10:51:36;;;;;;;5.80;1.70;;;8.70;99.90;;;;;;4951628;28;20413;-55
2023/04/03 10:54:24;;;;;;;6.53;1.43;;;9.50;99.90;;;;;;4951227;29;20420;-54
2023/04/03 10:57:01;;;;;;;6.35;1.90;;;8.60;99.90;;;;;;5032728;28;20429;-54
2023/04/03 10:59:36;;;;;;;5.70;1.42;;;8.60;99.90;;;;;;5052177;28;20396;-54
2023/04/03 11:02:11;;;;;;;6.35;1.83;;;8.40;99.90;;;;;;5051435;28;20377;-54
2023/04/03 11:04:41;;;;;;;7.18;1.25;;;8.50;99.90;;;;;;5051975;28;20408;-54
2023/04/03 11:07:26;;;;;;;6.20;1.50;;;8.60;99.90;;;;;;5052143;28;20469;-54
2023/04/03 11:10:01;;;;;;;5.63;1.35;;;8.40;99.90;;;;;;5051418;28;20543;-54
2023/04/03 11:12:51;;;;;;;6.72;1.42;;;8.10;99.90;;;;;;5052191;28;20378;-54
2023/04/03 11:15:21;;;;;;;7.00;1.60;;;7.90;99.90;;;;;;5020246;28;20418;-54
2023/04/03 11:18:01;;;;;;;7.13;1.60;;;8.20;99.90;;;;;;5030948;28;20414;-54
2023/04/03 11:20:37;;;;;;;9.63;2.10;;;8.20;99.90;;;;;;5031007;28;20880;-54
2023/04/03 11:23:24;;;;;;;5.97;1.60;;;8.10;99.90;;;;;;5031167;28;20387;-54
2023/04/03 11:25:53;;;;;;;6.32;1.70;;;8.20;99.90;;;;;;5031018;28;20391;-54
2023/04/03 11:28:18;;;;;;;7.93;1.60;;;8.40;99.90;;;;;;5031821;28;20398;-54
2023/04/03 11:31:20;;;;;;;6.30;1.80;;;8.50;99.90;;;;;;5030447;28;20439;-56
2023/04/03 11:34:04;;;;;;;5.85;1.40;;;8.10;99.90;;;;;;5030786;28;20465;-54
2023/04/03 11:36:34;;;;;;;6.30;1.40;;;8.10;99.90;;;;;;5031651;28;20460;-54
2023/04/03 11:39:10;;;;;;;7.93;1.50;;;8.10;99.90;;;;;;5030617;28;21302;-54
2023/04/03 11:41:35;;;;;;;9.23;1.90;;;8.20;99.90;;;;;;5031118;28;20802;-54
2023/04/03 11:44:05;;;;;;;6.20;1.70;;;8.30;99.90;;;;;;5031094;28;20390;-54
2023/04/03 11:46:54;;;;;;;6.15;1.90;;;7.90;99.90;;;;;;5031764;28;20394;-55
2023/04/03 11:49:59;;;;;;;6.60;1.60;;;7.90;99.90;;;;;;5031211;28;20833;-54
2023/04/03 11:52:40;;;;;;;6.20;1.20;;;7.80;99.90;;;;;;5031363;28;20482;-53
2023/04/03 11:55:21;;;;;;;6.10;1.60;;;7.90;99.90;;;;;;5030638;28;20392;-54
2023/04/03 11:57:59;;;;;;;6.82;1.48;;;7.90;99.90;;;;;;5029254;28;20793;-54
2023/04/03 12:00:46;;;;;;;8.60;1.73;;;7.90;99.90;;;;;;5030775;28;20383;-53
2023/04/03 12:03:42;;;;;;;5.72;1.65;;;7.90;99.90;;;;;;5030894;28;20379;-54
2023/04/03 12:06:09;;;;;;;5.95;1.63;;;8.60;99.90;;;;;;5021922;28;20429;-53
2023/04/03 12:08:41;;;;;;;6.68;1.42;;;7.80;99.90;;;;;;5031045;28;20415;-53
2023/04/03 12:11:13;;;;;;;6.03;1.70;;;7.90;99.90;;;;;;5030621;28;20399;-53
2023/04/03 12:13:55;;;;;;;5.28;1.35;;;8.20;99.90;;;;;;5035655;28;20420;-53
2023/04/03 12:16:30;;;;;;;6.30;1.80;;;8.10;99.90;;;;;;5050544;28;20871;-53
2023/04/03 12:19:03;;;;;;;7.20;1.98;;;8.20;99.90;;;;;;5049664;28;20757;-53
2023/04/03 12:21:43;;;;;;;7.22;1.50;;;8.40;99.90;;;;;;5050393;28;20413;-53
2023/04/03 12:24:09;;;;;;;7.28;1.60;;;8.40;99.90;;;;;;5050570;28;20385;-54
2023/04/03 12:26:44;;;;;;;5.90;1.52;;;8.40;99.90;;;;;;5050789;28;20909;-54
2023/04/03 12:29:32;;;;;;;6.30;1.80;;;8.60;99.90;;;;;;5050153;28;20467;-54
2023/04/03 12:32:07;;;;;;;5.43;1.60;;;8.70;99.90;;;;;;5049969;28;20492;-54
2023/04/03 12:34:56;;;;;;;7.60;2.00;;;8.30;99.90;;;;;;5050283;28;20458;-54
2023/04/03 12:37:24;;;;;;;5.97;1.83;;;8.20;99.90;;;;;;5050353;28;20397;-54
2023/04/03 12:40:46;;;;;;;6.10;1.70;;;8.30;99.90;;;;;;5049557;28;20434;-54
2023/04/03 12:43:17;;;;;;;6.47;1.80;;;8.40;99.90;;;;;;4949031;28;20406;-54
2023/04/03 12:45:55;;;;;;;7.10;1.80;;;8.60;99.90;;;;;;5046922;28;20390;-55
2023/04/03 12:48:26;;;;;;;9.60;1.90;;;8.60;99.90;;;;;;5050137;28;20389;-54
2023/04/03 12:50:52;;;;;;;6.40;1.70;;;9.00;99.90;;;;;;5049362;28;20499;-54
2023/04/03 12:53:33;;;;;;;6.85;1.60;;;9.50;99.90;;;;;;5050099;28;20393;-54
2023/04/03 12:56:19;;;;;;;6.47;1.85;;;10.20;99.90;;;;;;5049316;28;20378;-54
2023/04/03 12:58:45;;;;;;;10.75;3.05;;;9.70;99.90;;;;;;5049127;28;20824;-54
2023/04/03 13:01:14;;;;;;;7.65;2.03;;;9.60;99.90;;;;;;5049720;28;20440;-51
2023/04/03 13:03:43;;;;;;;6.93;2.05;;;9.60;99.90;;;;;;5049547;28;20390;-52
2023/04/03 13:06:19;;;;;;;7.00;1.90;;;9.40;99.90;;;;;;5049399;28;20377;-52
2023/04/03 13:09:03;;;;;;;6.72;2.10;;;9.30;99.90;;;;;;5049183;28;20465;-55
2023/04/03 13:11:40;;;;;;;6.20;1.95;;;8.90;99.90;;;;;;5049899;28;20397;-54
2023/04/03 13:14:17;;;;;;;6.20;1.70;;;8.80;99.90;;;;;;5048783;28;21259;-54
2023/04/03 13:17:00;;;;;;;7.10;1.90;;;9.00;99.90;;;;;;5049260;28;20405;-55
2023/04/03 13:19:27;;;;;;;7.38;2.20;;;9.30;99.90;;;;;;5049692;28;20420;-54
2023/04/03 13:22:09;;;;;;;7.55;2.03;;;9.40;99.90;;;;;;5049046;28;20390;-54